sensor_id;sensor_type;location;lat;lon;timestamp;P1;durP1;ratioP1;P2;durP2;ratioP2
41293;SDS011;27037;52.010;4.446;2023-05-08T00:00:38;117.57;;;73.75;;
41293;SDS011;27037;52.010;4.446;2023-05-08T00:03:04;129.20;;;80.32;;
41293;SDS011;27037;52.010;4.446;2023-05-08T00:05:30;131.60;;;79.60;;
41293;SDS011;27037;52.010;4.446;2023-05-08T00:07:55;126.25;;;76.30;;
41293;SDS011;27037;52.010;4.446;2023-05-08T00:10:25;121.15;;;75.70;;
41293;SDS011;27037;52.010;4.446;2023-05-08T00:12:52;118.38;;;73.63;;
41293;SDS011;27037;52.010;4.446;2023-05-08T00:15:18;117.07;;;72.47;;
41293;SDS011;27037;52.010;4.446;2023-05-08T00:17:44;113.15;;;71.50;;
41293;SDS011;27037;52.010;4.446;2023-05-08T00:20:10;118.13;;;73.57;;
41293;SDS011;27037;52.010;4.446;2023-05-08T00:22:36;108.72;;;69.88;;
41293;SDS011;27037;52.010;4.446;2023-05-08T00:25:02;121.80;;;74.72;;
41293;SDS011;27037;52.010;4.446;2023-05-08T00:27:29;124.38;;;77.05;;
41293;SDS011;27037;52.010;4.446;2023-05-08T00:29:55;123.22;;;76.18;;
41293;SDS011;27037;52.010;4.446;2023-05-08T00:32:22;122.93;;;73.90;;
41293;SDS011;27037;52.010;4.446;2023-05-08T00:34:47;115.88;;;72.50;;
41293;SDS011;27037;52.010;4.446;2023-05-08T00:37:13;116.88;;;74.00;;
41293;SDS011;27037;52.010;4.446;2023-05-08T00:39:39;113.25;;;69.63;;
41293;SDS011;27037;52.010;4.446;2023-05-08T00:42:04;113.53;;;68.90;;
41293;SDS011;27037;52.010;4.446;2023-05-08T00:44:30;117.22;;;72.22;;
41293;SDS011;27037;52.010;4.446;2023-05-08T00:46:56;116.30;;;72.57;;
41293;SDS011;27037;52.010;4.446;2023-05-08T00:49:21;107.28;;;68.25;;
41293;SDS011;27037;52.010;4.446;2023-05-08T00:51:48;113.90;;;71.25;;
41293;SDS011;27037;52.010;4.446;2023-05-08T00:54:16;113.38;;;70.38;;
41293;SDS011;27037;52.010;4.446;2023-05-08T00:56:42;117.25;;;73.15;;
41293;SDS011;27037;52.010;4.446;2023-05-08T00:59:10;116.57;;;71.05;;
41293;SDS011;27037;52.010;4.446;2023-05-08T01:01:38;111.50;;;69.78;;
41293;SDS011;27037;52.010;4.446;2023-05-08T01:04:05;114.95;;;69.78;;
41293;SDS011;27037;52.010;4.446;2023-05-08T01:06:31;115.88;;;72.57;;
41293;SDS011;27037;52.010;4.446;2023-05-08T01:08:58;122.03;;;72.55;;
41293;SDS011;27037;52.010;4.446;2023-05-08T01:16:55;114.10;;;70.65;;
41293;SDS011;27037;52.010;4.446;2023-05-08T01:33:16;107.07;;;67.50;;
41293;SDS011;27037;52.010;4.446;2023-05-08T01:35:49;109.60;;;68.80;;
41293;SDS011;27037;52.010;4.446;2023-05-08T01:38:26;116.30;;;71.25;;
41293;SDS011;27037;52.010;4.446;2023-05-08T01:41:02;114.25;;;72.70;;
41293;SDS011;27037;52.010;4.446;2023-05-08T01:43:38;112.05;;;70.07;;
41293;SDS011;27037;52.010;4.446;2023-05-08T01:46:07;127.25;;;76.68;;
41293;SDS011;27037;52.010;4.446;2023-05-08T01:48:48;124.38;;;75.32;;
41293;SDS011;27037;52.010;4.446;2023-05-08T01:51:22;124.05;;;76.25;;
41293;SDS011;27037;52.010;4.446;2023-05-08T01:53:56;131.88;;;78.78;;
41293;SDS011;27037;52.010;4.446;2023-05-08T01:56:28;128.90;;;78.50;;
41293;SDS011;27037;52.010;4.446;2023-05-08T01:58:55;124.45;;;75.57;;
41293;SDS011;27037;52.010;4.446;2023-05-08T02:01:23;127.65;;;76.32;;
41293;SDS011;27037;52.010;4.446;2023-05-08T02:03:53;127.57;;;75.93;;
41293;SDS011;27037;52.010;4.446;2023-05-08T02:06:20;128.25;;;77.63;;
41293;SDS011;27037;52.010;4.446;2023-05-08T02:08:47;128.18;;;74.45;;
41293;SDS011;27037;52.010;4.446;2023-05-08T02:11:13;131.77;;;78.53;;
41293;SDS011;27037;52.010;4.446;2023-05-08T02:13:42;127.05;;;77.10;;
41293;SDS011;27037;52.010;4.446;2023-05-08T02:16:10;136.48;;;77.72;;
41293;SDS011;27037;52.010;4.446;2023-05-08T02:18:37;133.70;;;77.82;;
41293;SDS011;27037;52.010;4.446;2023-05-08T02:21:04;128.55;;;75.45;;
41293;SDS011;27037;52.010;4.446;2023-05-08T02:23:33;134.10;;;76.40;;
41293;SDS011;27037;52.010;4.446;2023-05-08T02:26:00;125.50;;;71.70;;
41293;SDS011;27037;52.010;4.446;2023-05-08T02:28:28;128.13;;;74.57;;
41293;SDS011;27037;52.010;4.446;2023-05-08T02:30:54;136.65;;;74.28;;
41293;SDS011;27037;52.010;4.446;2023-05-08T02:33:22;136.88;;;74.90;;
41293;SDS011;27037;52.010;4.446;2023-05-08T02:35:49;136.07;;;72.63;;
41293;SDS011;27037;52.010;4.446;2023-05-08T02:38:16;135.50;;;73.57;;
41293;SDS011;27037;52.010;4.446;2023-05-08T02:40:46;132.55;;;72.97;;
41293;SDS011;27037;52.010;4.446;2023-05-08T02:43:15;130.55;;;71.45;;
41293;SDS011;27037;52.010;4.446;2023-05-08T02:45:58;130.13;;;72.05;;
41293;SDS011;27037;52.010;4.446;2023-05-08T02:57:05;139.55;;;71.53;;
41293;SDS011;27037;52.010;4.446;2023-05-08T02:59:39;134.07;;;69.38;;
41293;SDS011;27037;52.010;4.446;2023-05-08T03:02:14;151.38;;;74.75;;
41293;SDS011;27037;52.010;4.446;2023-05-08T03:04:52;153.32;;;74.22;;
41293;SDS011;27037;52.010;4.446;2023-05-08T03:07:24;158.57;;;77.90;;
41293;SDS011;27037;52.010;4.446;2023-05-08T03:10:00;172.07;;;81.45;;
41293;SDS011;27037;52.010;4.446;2023-05-08T03:12:29;157.43;;;77.35;;
41293;SDS011;27037;52.010;4.446;2023-05-08T03:17:45;232.05;;;82.65;;
41293;SDS011;27037;52.010;4.446;2023-05-08T03:20:15;175.45;;;81.43;;
41293;SDS011;27037;52.010;4.446;2023-05-08T03:22:42;174.88;;;82.30;;
41293;SDS011;27037;52.010;4.446;2023-05-08T03:25:09;287.70;;;81.53;;
41293;SDS011;27037;52.010;4.446;2023-05-08T03:27:38;211.70;;;83.75;;
41293;SDS011;27037;52.010;4.446;2023-05-08T03:30:05;261.08;;;82.28;;
41293;SDS011;27037;52.010;4.446;2023-05-08T03:32:33;439.73;;;86.65;;
41293;SDS011;27037;52.010;4.446;2023-05-08T03:35:00;214.43;;;79.88;;
41293;SDS011;27037;52.010;4.446;2023-05-08T03:37:27;178.77;;;79.85;;
41293;SDS011;27037;52.010;4.446;2023-05-08T03:39:54;278.90;;;75.10;;
41293;SDS011;27037;52.010;4.446;2023-05-08T03:42:20;183.50;;;77.47;;
41293;SDS011;27037;52.010;4.446;2023-05-08T03:44:48;249.35;;;75.72;;
41293;SDS011;27037;52.010;4.446;2023-05-08T03:47:15;462.15;;;79.80;;
41293;SDS011;27037;52.010;4.446;2023-05-08T03:49:45;239.73;;;72.65;;
41293;SDS011;27037;52.010;4.446;2023-05-08T03:52:13;434.48;;;72.60;;
41293;SDS011;27037;52.010;4.446;2023-05-08T03:54:39;174.55;;;69.82;;
41293;SDS011;27037;52.010;4.446;2023-05-08T03:57:05;187.38;;;72.25;;
41293;SDS011;27037;52.010;4.446;2023-05-08T03:59:35;411.88;;;79.13;;
41293;SDS011;27037;52.010;4.446;2023-05-08T04:05:13;185.13;;;69.28;;
41293;SDS011;27037;52.010;4.446;2023-05-08T04:08:06;209.60;;;61.17;;
41293;SDS011;27037;52.010;4.446;2023-05-08T04:10:45;181.52;;;60.90;;
41293;SDS011;27037;52.010;4.446;2023-05-08T04:13:17;118.25;;;42.92;;
41293;SDS011;27037;52.010;4.446;2023-05-08T04:15:50;205.80;;;64.55;;
41293;SDS011;27037;52.010;4.446;2023-05-08T04:18:21;203.15;;;61.72;;
41293;SDS011;27037;52.010;4.446;2023-05-08T04:20:52;170.00;;;57.85;;
41293;SDS011;27037;52.010;4.446;2023-05-08T04:23:20;253.52;;;57.30;;
41293;SDS011;27037;52.010;4.446;2023-05-08T04:25:47;163.65;;;55.42;;
41293;SDS011;27037;52.010;4.446;2023-05-08T04:28:15;196.50;;;54.42;;
41293;SDS011;27037;52.010;4.446;2023-05-08T04:30:42;157.93;;;49.90;;
41293;SDS011;27037;52.010;4.446;2023-05-08T04:33:08;232.02;;;47.28;;
41293;SDS011;27037;52.010;4.446;2023-05-08T04:35:35;141.63;;;44.92;;
41293;SDS011;27037;52.010;4.446;2023-05-08T04:38:01;193.10;;;44.60;;
41293;SDS011;27037;52.010;4.446;2023-05-08T04:40:27;171.57;;;46.90;;
41293;SDS011;27037;52.010;4.446;2023-05-08T04:42:52;128.43;;;48.13;;
41293;SDS011;27037;52.010;4.446;2023-05-08T04:45:18;247.52;;;49.58;;
41293;SDS011;27037;52.010;4.446;2023-05-08T04:47:44;120.03;;;46.20;;
41293;SDS011;27037;52.010;4.446;2023-05-08T04:50:09;116.93;;;46.50;;
41293;SDS011;27037;52.010;4.446;2023-05-08T04:52:35;119.68;;;44.75;;
41293;SDS011;27037;52.010;4.446;2023-05-08T04:55:01;117.85;;;45.67;;
41293;SDS011;27037;52.010;4.446;2023-05-08T04:57:27;127.60;;;45.63;;
41293;SDS011;27037;52.010;4.446;2023-05-08T04:59:52;117.80;;;43.65;;
41293;SDS011;27037;52.010;4.446;2023-05-08T05:02:18;176.85;;;43.45;;
41293;SDS011;27037;52.010;4.446;2023-05-08T05:04:44;131.65;;;43.42;;
41293;SDS011;27037;52.010;4.446;2023-05-08T05:07:09;115.22;;;44.95;;
41293;SDS011;27037;52.010;4.446;2023-05-08T05:09:35;123.60;;;43.13;;
41293;SDS011;27037;52.010;4.446;2023-05-08T05:12:03;99.75;;;40.17;;
41293;SDS011;27037;52.010;4.446;2023-05-08T05:14:29;111.57;;;43.03;;
41293;SDS011;27037;52.010;4.446;2023-05-08T05:16:54;105.85;;;42.00;;
41293;SDS011;27037;52.010;4.446;2023-05-08T05:19:20;102.28;;;42.20;;
41293;SDS011;27037;52.010;4.446;2023-05-08T05:21:46;102.07;;;42.33;;
41293;SDS011;27037;52.010;4.446;2023-05-08T05:24:11;108.72;;;44.22;;
41293;SDS011;27037;52.010;4.446;2023-05-08T05:26:37;110.25;;;45.40;;
41293;SDS011;27037;52.010;4.446;2023-05-08T05:29:02;110.95;;;44.47;;
41293;SDS011;27037;52.010;4.446;2023-05-08T05:31:28;100.53;;;40.92;;
41293;SDS011;27037;52.010;4.446;2023-05-08T05:33:54;101.40;;;42.13;;
41293;SDS011;27037;52.010;4.446;2023-05-08T05:36:20;108.03;;;42.97;;
41293;SDS011;27037;52.010;4.446;2023-05-08T05:38:46;102.97;;;42.95;;
41293;SDS011;27037;52.010;4.446;2023-05-08T05:41:12;109.70;;;43.08;;
41293;SDS011;27037;52.010;4.446;2023-05-08T05:43:37;108.32;;;43.53;;
41293;SDS011;27037;52.010;4.446;2023-05-08T05:46:04;111.35;;;44.58;;
41293;SDS011;27037;52.010;4.446;2023-05-08T05:48:30;106.03;;;43.88;;
41293;SDS011;27037;52.010;4.446;2023-05-08T05:50:55;108.00;;;43.00;;
41293;SDS011;27037;52.010;4.446;2023-05-08T05:53:21;121.50;;;44.45;;
41293;SDS011;27037;52.010;4.446;2023-05-08T05:55:47;110.20;;;41.40;;
41293;SDS011;27037;52.010;4.446;2023-05-08T05:58:13;115.88;;;43.65;;
41293;SDS011;27037;52.010;4.446;2023-05-08T06:00:39;117.30;;;44.47;;
41293;SDS011;27037;52.010;4.446;2023-05-08T06:03:05;113.30;;;44.00;;
41293;SDS011;27037;52.010;4.446;2023-05-08T06:05:31;121.40;;;42.72;;
41293;SDS011;27037;52.010;4.446;2023-05-08T06:07:56;118.78;;;42.15;;
41293;SDS011;27037;52.010;4.446;2023-05-08T06:10:22;110.32;;;39.05;;
41293;SDS011;27037;52.010;4.446;2023-05-08T06:12:48;103.47;;;39.97;;
41293;SDS011;27037;52.010;4.446;2023-05-08T06:15:13;104.45;;;37.35;;
41293;SDS011;27037;52.010;4.446;2023-05-08T06:17:39;99.70;;;37.40;;
41293;SDS011;27037;52.010;4.446;2023-05-08T06:20:05;93.95;;;35.72;;
41293;SDS011;27037;52.010;4.446;2023-05-08T06:22:31;94.40;;;36.33;;
41293;SDS011;27037;52.010;4.446;2023-05-08T06:24:57;98.85;;;37.38;;
41293;SDS011;27037;52.010;4.446;2023-05-08T06:27:22;124.22;;;41.60;;
41293;SDS011;27037;52.010;4.446;2023-05-08T06:29:48;118.30;;;41.70;;
41293;SDS011;27037;52.010;4.446;2023-05-08T06:32:16;124.72;;;42.53;;
41293;SDS011;27037;52.010;4.446;2023-05-08T06:34:45;115.22;;;41.85;;
41293;SDS011;27037;52.010;4.446;2023-05-08T06:37:11;121.65;;;41.65;;
41293;SDS011;27037;52.010;4.446;2023-05-08T06:39:37;119.93;;;42.58;;
41293;SDS011;27037;52.010;4.446;2023-05-08T06:42:02;109.55;;;40.53;;
41293;SDS011;27037;52.010;4.446;2023-05-08T06:44:31;115.03;;;40.33;;
41293;SDS011;27037;52.010;4.446;2023-05-08T06:46:57;114.65;;;40.17;;
41293;SDS011;27037;52.010;4.446;2023-05-08T06:49:23;107.05;;;40.17;;
41293;SDS011;27037;52.010;4.446;2023-05-08T06:51:49;111.03;;;39.17;;
41293;SDS011;27037;52.010;4.446;2023-05-08T06:54:15;107.22;;;39.63;;
41293;SDS011;27037;52.010;4.446;2023-05-08T06:56:41;108.47;;;39.25;;
41293;SDS011;27037;52.010;4.446;2023-05-08T06:59:06;106.47;;;38.92;;
41293;SDS011;27037;52.010;4.446;2023-05-08T07:01:32;104.40;;;38.65;;
41293;SDS011;27037;52.010;4.446;2023-05-08T07:03:58;101.40;;;37.03;;
41293;SDS011;27037;52.010;4.446;2023-05-08T07:06:24;98.38;;;37.70;;
41293;SDS011;27037;52.010;4.446;2023-05-08T07:08:51;92.55;;;36.05;;
41293;SDS011;27037;52.010;4.446;2023-05-08T07:11:17;103.75;;;38.15;;
41293;SDS011;27037;52.010;4.446;2023-05-08T07:13:42;98.82;;;36.97;;
41293;SDS011;27037;52.010;4.446;2023-05-08T07:16:10;102.20;;;38.30;;
41293;SDS011;27037;52.010;4.446;2023-05-08T07:18:36;99.07;;;36.88;;
41293;SDS011;27037;52.010;4.446;2023-05-08T07:21:02;91.25;;;34.78;;
41293;SDS011;27037;52.010;4.446;2023-05-08T07:23:28;104.93;;;38.33;;
41293;SDS011;27037;52.010;4.446;2023-05-08T07:25:53;102.00;;;38.83;;
41293;SDS011;27037;52.010;4.446;2023-05-08T07:28:19;100.28;;;37.65;;
41293;SDS011;27037;52.010;4.446;2023-05-08T07:30:45;94.63;;;36.45;;
41293;SDS011;27037;52.010;4.446;2023-05-08T07:33:11;94.43;;;35.88;;
41293;SDS011;27037;52.010;4.446;2023-05-08T07:35:40;87.45;;;35.38;;
41293;SDS011;27037;52.010;4.446;2023-05-08T07:38:06;85.13;;;34.05;;
41293;SDS011;27037;52.010;4.446;2023-05-08T07:40:32;82.65;;;34.20;;
41293;SDS011;27037;52.010;4.446;2023-05-08T07:42:57;83.78;;;35.90;;
41293;SDS011;27037;52.010;4.446;2023-05-08T07:45:23;88.43;;;35.17;;
41293;SDS011;27037;52.010;4.446;2023-05-08T07:47:49;80.82;;;33.70;;
41293;SDS011;27037;52.010;4.446;2023-05-08T07:50:16;83.18;;;33.78;;
41293;SDS011;27037;52.010;4.446;2023-05-08T07:52:42;80.00;;;34.38;;
41293;SDS011;27037;52.010;4.446;2023-05-08T07:55:07;88.80;;;36.80;;
41293;SDS011;27037;52.010;4.446;2023-05-08T07:57:37;81.63;;;36.55;;
41293;SDS011;27037;52.010;4.446;2023-05-08T08:00:04;83.70;;;36.15;;
41293;SDS011;27037;52.010;4.446;2023-05-08T08:02:31;76.43;;;33.70;;
41293;SDS011;27037;52.010;4.446;2023-05-08T08:04:56;72.70;;;32.47;;
41293;SDS011;27037;52.010;4.446;2023-05-08T08:07:22;68.20;;;31.63;;
41293;SDS011;27037;52.010;4.446;2023-05-08T08:09:47;70.72;;;32.38;;
41293;SDS011;27037;52.010;4.446;2023-05-08T08:12:13;70.25;;;31.60;;
41293;SDS011;27037;52.010;4.446;2023-05-08T08:14:39;68.50;;;30.88;;
41293;SDS011;27037;52.010;4.446;2023-05-08T08:17:05;75.55;;;34.97;;
41293;SDS011;27037;52.010;4.446;2023-05-08T08:19:31;79.85;;;36.53;;
41293;SDS011;27037;52.010;4.446;2023-05-08T08:21:56;80.57;;;38.45;;
41293;SDS011;27037;52.010;4.446;2023-05-08T08:24:22;87.40;;;39.38;;
41293;SDS011;27037;52.010;4.446;2023-05-08T08:26:48;84.20;;;38.20;;
41293;SDS011;27037;52.010;4.446;2023-05-08T08:29:14;81.28;;;39.80;;
41293;SDS011;27037;52.010;4.446;2023-05-08T08:31:39;83.57;;;40.55;;
41293;SDS011;27037;52.010;4.446;2023-05-08T08:34:05;89.05;;;41.60;;
41293;SDS011;27037;52.010;4.446;2023-05-08T08:36:30;82.38;;;39.40;;
41293;SDS011;27037;52.010;4.446;2023-05-08T08:38:56;86.05;;;39.72;;
41293;SDS011;27037;52.010;4.446;2023-05-08T08:41:22;85.40;;;41.60;;
41293;SDS011;27037;52.010;4.446;2023-05-08T08:43:48;94.13;;;44.00;;
41293;SDS011;27037;52.010;4.446;2023-05-08T08:46:14;91.80;;;42.25;;
41293;SDS011;27037;52.010;4.446;2023-05-08T08:48:44;92.95;;;44.20;;
41293;SDS011;27037;52.010;4.446;2023-05-08T08:51:20;91.18;;;40.80;;
41293;SDS011;27037;52.010;4.446;2023-05-08T08:54:00;85.45;;;40.17;;
41293;SDS011;27037;52.010;4.446;2023-05-08T08:56:38;89.20;;;41.00;;
41293;SDS011;27037;52.010;4.446;2023-05-08T08:59:07;89.50;;;41.85;;
41293;SDS011;27037;52.010;4.446;2023-05-08T09:01:34;86.95;;;41.28;;
41293;SDS011;27037;52.010;4.446;2023-05-08T09:04:02;82.60;;;40.13;;
41293;SDS011;27037;52.010;4.446;2023-05-08T09:06:29;88.80;;;41.55;;
41293;SDS011;27037;52.010;4.446;2023-05-08T09:08:59;83.22;;;40.83;;
41293;SDS011;27037;52.010;4.446;2023-05-08T09:11:26;90.07;;;40.33;;
41293;SDS011;27037;52.010;4.446;2023-05-08T09:13:55;88.95;;;41.05;;
41293;SDS011;27037;52.010;4.446;2023-05-08T09:16:22;95.00;;;44.25;;
41293;SDS011;27037;52.010;4.446;2023-05-08T09:18:48;101.72;;;43.90;;
41293;SDS011;27037;52.010;4.446;2023-05-08T09:21:14;99.25;;;42.78;;
41293;SDS011;27037;52.010;4.446;2023-05-08T09:29:06;88.90;;;40.78;;
41293;SDS011;27037;52.010;4.446;2023-05-08T09:31:35;94.57;;;42.47;;
41293;SDS011;27037;52.010;4.446;2023-05-08T09:34:05;87.82;;;40.72;;
41293;SDS011;27037;52.010;4.446;2023-05-08T09:36:32;76.22;;;36.28;;
41293;SDS011;27037;52.010;4.446;2023-05-08T09:38:58;73.95;;;35.95;;
41293;SDS011;27037;52.010;4.446;2023-05-08T09:41:27;66.93;;;34.40;;
41293;SDS011;27037;52.010;4.446;2023-05-08T09:44:00;62.65;;;32.58;;
41293;SDS011;27037;52.010;4.446;2023-05-08T09:46:31;58.83;;;32.03;;
41293;SDS011;27037;52.010;4.446;2023-05-08T09:49:01;57.65;;;31.23;;
41293;SDS011;27037;52.010;4.446;2023-05-08T09:51:29;53.35;;;31.02;;
41293;SDS011;27037;52.010;4.446;2023-05-08T09:53:56;49.05;;;28.95;;
41293;SDS011;27037;52.010;4.446;2023-05-08T09:56:33;47.13;;;27.70;;
41293;SDS011;27037;52.010;4.446;2023-05-08T09:59:04;44.42;;;28.50;;
41293;SDS011;27037;52.010;4.446;2023-05-08T10:01:45;44.55;;;29.95;;
41293;SDS011;27037;52.010;4.446;2023-05-08T10:04:12;49.70;;;30.63;;
41293;SDS011;27037;52.010;4.446;2023-05-08T10:06:38;52.85;;;33.33;;
41293;SDS011;27037;52.010;4.446;2023-05-08T10:09:13;55.58;;;35.08;;
41293;SDS011;27037;52.010;4.446;2023-05-08T10:14:05;58.25;;;37.90;;
41293;SDS011;27037;52.010;4.446;2023-05-08T10:16:35;62.13;;;40.38;;
41293;SDS011;27037;52.010;4.446;2023-05-08T10:19:11;61.42;;;41.53;;
41293;SDS011;27037;52.010;4.446;2023-05-08T10:21:39;61.65;;;41.40;;
41293;SDS011;27037;52.010;4.446;2023-05-08T10:24:11;61.17;;;41.92;;
41293;SDS011;27037;52.010;4.446;2023-05-08T10:26:39;56.65;;;40.67;;
41293;SDS011;27037;52.010;4.446;2023-05-08T10:29:08;53.88;;;39.08;;
41293;SDS011;27037;52.010;4.446;2023-05-08T10:34:11;50.38;;;38.03;;
41293;SDS011;27037;52.010;4.446;2023-05-08T10:36:41;51.47;;;38.42;;
41293;SDS011;27037;52.010;4.446;2023-05-08T10:39:07;45.65;;;36.22;;
41293;SDS011;27037;52.010;4.446;2023-05-08T10:41:35;52.15;;;35.47;;
41293;SDS011;27037;52.010;4.446;2023-05-08T10:44:01;46.80;;;36.00;;
41293;SDS011;27037;52.010;4.446;2023-05-08T10:46:28;49.53;;;37.42;;
41293;SDS011;27037;52.010;4.446;2023-05-08T10:52:06;53.97;;;39.25;;
41293;SDS011;27037;52.010;4.446;2023-05-08T10:57:26;54.08;;;39.40;;
41293;SDS011;27037;52.010;4.446;2023-05-08T10:59:51;53.90;;;40.50;;
41293;SDS011;27037;52.010;4.446;2023-05-08T11:02:19;59.47;;;42.47;;
41293;SDS011;27037;52.010;4.446;2023-05-08T11:04:52;57.75;;;42.50;;
41293;SDS011;27037;52.010;4.446;2023-05-08T11:07:18;59.08;;;44.03;;
41293;SDS011;27037;52.010;4.446;2023-05-08T11:09:46;57.60;;;43.40;;
41293;SDS011;27037;52.010;4.446;2023-05-08T11:12:25;53.13;;;41.90;;
41293;SDS011;27037;52.010;4.446;2023-05-08T11:15:03;52.33;;;41.03;;
41293;SDS011;27037;52.010;4.446;2023-05-08T11:17:31;51.72;;;39.45;;
41293;SDS011;27037;52.010;4.446;2023-05-08T11:20:03;48.40;;;36.78;;
41293;SDS011;27037;52.010;4.446;2023-05-08T11:22:34;42.88;;;32.75;;
41293;SDS011;27037;52.010;4.446;2023-05-08T11:27:30;46.22;;;37.45;;
41293;SDS011;27037;52.010;4.446;2023-05-08T11:30:22;49.95;;;39.10;;
41293;SDS011;27037;52.010;4.446;2023-05-08T11:35:47;53.30;;;39.10;;
41293;SDS011;27037;52.010;4.446;2023-05-08T11:38:34;50.33;;;36.53;;
41293;SDS011;27037;52.010;4.446;2023-05-08T11:43:31;49.13;;;35.25;;
41293;SDS011;27037;52.010;4.446;2023-05-08T11:46:01;49.38;;;35.10;;
41293;SDS011;27037;52.010;4.446;2023-05-08T11:48:33;52.08;;;36.72;;
41293;SDS011;27037;52.010;4.446;2023-05-08T11:50:59;56.25;;;37.88;;
41293;SDS011;27037;52.010;4.446;2023-05-08T11:53:27;57.10;;;38.00;;
41293;SDS011;27037;52.010;4.446;2023-05-08T11:55:56;65.38;;;40.72;;
41293;SDS011;27037;52.010;4.446;2023-05-08T11:58:23;61.50;;;40.20;;
41293;SDS011;27037;52.010;4.446;2023-05-08T12:00:48;59.13;;;38.40;;
41293;SDS011;27037;52.010;4.446;2023-05-08T12:03:15;54.30;;;36.60;;
41293;SDS011;27037;52.010;4.446;2023-05-08T12:05:42;49.38;;;35.72;;
41293;SDS011;27037;52.010;4.446;2023-05-08T12:08:09;51.33;;;37.42;;
41293;SDS011;27037;52.010;4.446;2023-05-08T12:10:39;56.60;;;37.67;;
41293;SDS011;27037;52.010;4.446;2023-05-08T12:15:55;56.85;;;39.55;;
41293;SDS011;27037;52.010;4.446;2023-05-08T12:18:22;56.17;;;39.15;;
41293;SDS011;27037;52.010;4.446;2023-05-08T12:20:50;54.30;;;39.20;;
41293;SDS011;27037;52.010;4.446;2023-05-08T12:23:25;57.95;;;40.03;;
41293;SDS011;27037;52.010;4.446;2023-05-08T12:25:53;58.58;;;43.20;;
41293;SDS011;27037;52.010;4.446;2023-05-08T12:28:19;63.28;;;44.95;;
41293;SDS011;27037;52.010;4.446;2023-05-08T12:30:45;63.22;;;44.00;;
41293;SDS011;27037;52.010;4.446;2023-05-08T12:33:12;63.50;;;43.17;;
41293;SDS011;27037;52.010;4.446;2023-05-08T12:35:39;58.05;;;41.05;;
41293;SDS011;27037;52.010;4.446;2023-05-08T12:38:05;57.35;;;40.75;;
41293;SDS011;27037;52.010;4.446;2023-05-08T12:40:32;59.65;;;40.75;;
41293;SDS011;27037;52.010;4.446;2023-05-08T12:43:00;58.38;;;41.13;;
41293;SDS011;27037;52.010;4.446;2023-05-08T12:45:32;63.47;;;39.75;;
41293;SDS011;27037;52.010;4.446;2023-05-08T12:50:26;61.67;;;40.70;;
41293;SDS011;27037;52.010;4.446;2023-05-08T12:52:54;60.13;;;39.65;;
41293;SDS011;27037;52.010;4.446;2023-05-08T12:55:27;67.18;;;38.95;;
41293;SDS011;27037;52.010;4.446;2023-05-08T12:57:58;70.47;;;38.35;;
41293;SDS011;27037;52.010;4.446;2023-05-08T13:00:24;71.30;;;38.15;;
41293;SDS011;27037;52.010;4.446;2023-05-08T13:02:53;71.97;;;38.85;;
41293;SDS011;27037;52.010;4.446;2023-05-08T13:05:20;83.55;;;43.22;;
41293;SDS011;27037;52.010;4.446;2023-05-08T13:07:47;86.07;;;44.30;;
41293;SDS011;27037;52.010;4.446;2023-05-08T13:10:14;87.07;;;43.30;;
41293;SDS011;27037;52.010;4.446;2023-05-08T13:12:39;90.10;;;45.30;;
41293;SDS011;27037;52.010;4.446;2023-05-08T13:15:05;97.75;;;47.53;;
41293;SDS011;27037;52.010;4.446;2023-05-08T13:17:31;103.60;;;48.78;;
41293;SDS011;27037;52.010;4.446;2023-05-08T13:19:57;97.07;;;48.30;;
41293;SDS011;27037;52.010;4.446;2023-05-08T13:22:27;106.95;;;49.42;;
41293;SDS011;27037;52.010;4.446;2023-05-08T13:24:56;98.57;;;48.50;;
41293;SDS011;27037;52.010;4.446;2023-05-08T13:27:33;104.70;;;49.72;;
41293;SDS011;27037;52.010;4.446;2023-05-08T13:29:58;107.90;;;49.13;;
41293;SDS011;27037;52.010;4.446;2023-05-08T13:32:54;99.27;;;48.27;;
41293;SDS011;27037;52.010;4.446;2023-05-08T13:35:20;103.57;;;48.92;;
41293;SDS011;27037;52.010;4.446;2023-05-08T13:37:46;112.25;;;52.80;;
41293;SDS011;27037;52.010;4.446;2023-05-08T13:40:21;120.68;;;55.20;;
41293;SDS011;27037;52.010;4.446;2023-05-08T13:42:48;119.07;;;54.92;;
41293;SDS011;27037;52.010;4.446;2023-05-08T13:45:14;124.72;;;59.50;;
41293;SDS011;27037;52.010;4.446;2023-05-08T13:47:45;120.53;;;56.40;;
41293;SDS011;27037;52.010;4.446;2023-05-08T13:50:20;121.68;;;56.88;;
41293;SDS011;27037;52.010;4.446;2023-05-08T13:52:52;122.25;;;56.95;;
41293;SDS011;27037;52.010;4.446;2023-05-08T13:55:25;125.90;;;57.97;;
41293;SDS011;27037;52.010;4.446;2023-05-08T13:57:53;125.63;;;57.67;;
41293;SDS011;27037;52.010;4.446;2023-05-08T14:00:20;118.07;;;53.83;;
41293;SDS011;27037;52.010;4.446;2023-05-08T14:02:46;119.65;;;55.55;;
41293;SDS011;27037;52.010;4.446;2023-05-08T14:05:12;115.35;;;54.17;;
41293;SDS011;27037;52.010;4.446;2023-05-08T14:07:48;115.45;;;54.60;;
41293;SDS011;27037;52.010;4.446;2023-05-08T14:10:14;107.45;;;51.58;;
41293;SDS011;27037;52.010;4.446;2023-05-08T14:15:40;114.07;;;53.42;;
41293;SDS011;27037;52.010;4.446;2023-05-08T14:18:22;101.80;;;51.73;;
41293;SDS011;27037;52.010;4.446;2023-05-08T14:21:01;100.50;;;50.60;;
41293;SDS011;27037;52.010;4.446;2023-05-08T14:23:27;100.70;;;50.80;;
41293;SDS011;27037;52.010;4.446;2023-05-08T14:25:53;101.93;;;51.65;;
41293;SDS011;27037;52.010;4.446;2023-05-08T14:28:19;110.15;;;53.95;;
41293;SDS011;27037;52.010;4.446;2023-05-08T14:30:44;114.47;;;54.05;;
41293;SDS011;27037;52.010;4.446;2023-05-08T14:33:10;108.13;;;51.97;;
41293;SDS011;27037;52.010;4.446;2023-05-08T14:35:35;108.57;;;51.95;;
41293;SDS011;27037;52.010;4.446;2023-05-08T14:38:01;106.30;;;48.63;;
41293;SDS011;27037;52.010;4.446;2023-05-08T14:40:26;99.38;;;47.33;;
41293;SDS011;27037;52.010;4.446;2023-05-08T14:42:52;107.85;;;51.30;;
41293;SDS011;27037;52.010;4.446;2023-05-08T14:45:18;111.30;;;55.30;;
41293;SDS011;27037;52.010;4.446;2023-05-08T14:47:43;114.13;;;57.15;;
41293;SDS011;27037;52.010;4.446;2023-05-08T14:50:09;118.70;;;60.45;;
41293;SDS011;27037;52.010;4.446;2023-05-08T14:52:35;111.03;;;54.30;;
41293;SDS011;27037;52.010;4.446;2023-05-08T14:55:00;111.32;;;52.20;;
41293;SDS011;27037;52.010;4.446;2023-05-08T14:57:26;108.47;;;50.28;;
41293;SDS011;27037;52.010;4.446;2023-05-08T14:59:52;104.82;;;49.70;;
41293;SDS011;27037;52.010;4.446;2023-05-08T15:02:20;110.55;;;50.92;;
41293;SDS011;27037;52.010;4.446;2023-05-08T15:04:45;108.63;;;50.28;;
41293;SDS011;27037;52.010;4.446;2023-05-08T15:07:11;108.25;;;49.60;;
41293;SDS011;27037;52.010;4.446;2023-05-08T15:09:37;103.22;;;49.25;;
41293;SDS011;27037;52.010;4.446;2023-05-08T15:12:02;103.15;;;48.63;;
41293;SDS011;27037;52.010;4.446;2023-05-08T15:14:35;99.13;;;48.38;;
41293;SDS011;27037;52.010;4.446;2023-05-08T15:17:54;97.63;;;47.13;;
41293;SDS011;27037;52.010;4.446;2023-05-08T15:20:20;98.68;;;47.65;;
41293;SDS011;27037;52.010;4.446;2023-05-08T15:22:46;97.82;;;48.17;;
41293;SDS011;27037;52.010;4.446;2023-05-08T15:25:11;105.82;;;51.90;;